PWSweather.com
Personal Weather Stations
Station Observations
KJ4AJP
Beautiful Downtown Gardner, Martin, TN 38237

Beautiful Downtown GardnerMartin, TN 38237

Lat: 36.358, Lon: -88.8994

Elevation: 384.3

Station Type: TP1080WC

http://weather.mambm.com/

High Low Average
Temperature 58.1°F14.5°C 35.8°F2.1°C 45.5°F7.5°C
Dew Point 48.1°F8.9°C 32.0°F0.0°C 39.7°F4.3°C
Winds 9.2 mph 14.8 kmh Calm Calm 3.0 mph ESE4.8 kmh ESE
Wind Gusts 15.9 mph25.6 kmh 0.7 mph1.1 kmh 7.0 mph11.3 kmh
Humidity 99% 52% 82%
Pressure 30.31 in1026.4 mb 30.21 in1023.0 mb -
Precipitation 0.02 in0.5 mm - -
Hour Temp Dew Point Humidity Winds Wind Gusts Pressure Precip Precip Rate Daily Precip Total
12:00 AM 50.0°F10.0°C 49.7°F9.8°C 99% 3.1 mph N5.0 kmh N 7.6 mph12.2 kmh 30.24 in1024.0 mb 0.00 in0.0 mm 0.00 in0.0 mm 0.52 in13.2 mm
12:15 AM 49.8°F9.9°C 49.6°F9.8°C 99% 0.7 mph N1.1 kmh N 6.0 mph9.7 kmh 30.24 in1024.0 mb 0.00 in0.0 mm 0.00 in0.0 mm 0.52 in13.2 mm
12:30 AM 49.5°F9.7°C 49.2°F9.6°C 99% 1.6 mph N2.6 kmh N 5.4 mph8.7 kmh 30.25 in1024.4 mb 0.00 in0.0 mm 0.00 in0.0 mm 0.52 in13.2 mm
12:45 AM 48.7°F9.3°C 48.5°F9.2°C 99% 2.2 mph N3.5 kmh N 4.5 mph7.2 kmh 30.25 in1024.4 mb 0.00 in0.0 mm 0.00 in0.0 mm 0.52 in13.2 mm
01:00 AM 48.2°F9.0°C 47.9°F8.8°C 99% 3.1 mph N5.0 kmh N 7.6 mph12.2 kmh 30.26 in1024.7 mb 0.00 in0.0 mm 0.00 in0.0 mm 0.00 in0.0 mm
01:15 AM 47.8°F8.8°C 47.6°F8.7°C 99% 3.8 mph N6.1 kmh N 6.9 mph11.1 kmh 30.26 in1024.7 mb 0.00 in0.0 mm 0.00 in0.0 mm 0.00 in0.0 mm
01:30 AM 47.8°F8.8°C 47.6°F8.7°C 99% 6.0 mph N9.7 kmh N 12.1 mph19.5 kmh 30.26 in1024.7 mb 0.00 in0.0 mm 0.00 in0.0 mm 0.00 in0.0 mm
01:45 AM 47.3°F8.5°C 47.0°F8.3°C 99% 4.5 mph N7.2 kmh N 9.2 mph14.8 kmh 30.25 in1024.4 mb 0.00 in0.0 mm 0.00 in0.0 mm 0.00 in0.0 mm
02:00 AM 46.6°F8.1°C 46.3°F7.9°C 99% 4.5 mph N7.2 kmh N 9.2 mph14.8 kmh 30.25 in1024.4 mb 0.00 in0.0 mm 0.00 in0.0 mm 0.00 in0.0 mm
02:15 AM 45.9°F7.7°C 45.6°F7.6°C 99% 3.1 mph N5.0 kmh N 6.9 mph11.1 kmh 30.25 in1024.4 mb 0.00 in0.0 mm 0.00 in0.0 mm 0.00 in0.0 mm
02:30 AM 45.3°F7.4°C 45.1°F7.3°C 99% 0.7 mph N1.1 kmh N 5.4 mph8.7 kmh 30.26 in1024.7 mb 0.00 in0.0 mm 0.00 in0.0 mm 0.00 in0.0 mm
02:45 AM 44.8°F7.1°C 44.5°F6.9°C 99% 3.1 mph N5.0 kmh N 6.0 mph9.7 kmh 30.25 in1024.4 mb 0.00 in0.0 mm 0.00 in0.0 mm 0.00 in0.0 mm
03:00 AM 44.4°F6.9°C 44.2°F6.8°C 99% 3.1 mph N5.0 kmh N 7.6 mph12.2 kmh 30.25 in1024.4 mb 0.00 in0.0 mm 0.00 in0.0 mm 0.00 in0.0 mm
03:15 AM 44.2°F6.8°C 44.0°F6.7°C 99% 3.8 mph N6.1 kmh N 7.6 mph12.2 kmh 30.25 in1024.4 mb 0.00 in0.0 mm 0.00 in0.0 mm 0.00 in0.0 mm
03:30 AM 43.9°F6.6°C 43.6°F6.4°C 99% 3.1 mph N5.0 kmh N 7.6 mph12.2 kmh 30.25 in1024.4 mb 0.00 in0.0 mm 0.00 in0.0 mm 0.00 in0.0 mm
03:45 AM 43.5°F6.4°C 43.3°F6.3°C 99% 2.2 mph N3.5 kmh N 5.4 mph8.7 kmh 30.25 in1024.4 mb 0.00 in0.0 mm 0.00 in0.0 mm 0.00 in0.0 mm
04:00 AM 43.2°F6.2°C 42.9°F6.1°C 99% 3.8 mph N6.1 kmh N 7.6 mph12.2 kmh 30.25 in1024.4 mb 0.00 in0.0 mm 0.00 in0.0 mm 0.00 in0.0 mm
04:15 AM 42.8°F6.0°C 42.5°F5.8°C 99% 2.2 mph N3.5 kmh N 7.6 mph12.2 kmh 30.25 in1024.4 mb 0.00 in0.0 mm 0.00 in0.0 mm 0.00 in0.0 mm
04:30 AM 42.3°F5.7°C 42.0°F5.6°C 99% 1.6 mph N2.6 kmh N 3.8 mph6.1 kmh 30.25 in1024.4 mb 0.00 in0.0 mm 0.00 in0.0 mm 0.00 in0.0 mm
04:45 AM 41.5°F5.3°C 41.3°F5.2°C 99% Calm Calm 2.2 mph3.5 kmh 30.25 in1024.4 mb 0.00 in0.0 mm 0.00 in0.0 mm 0.00 in0.0 mm
05:00 AM 40.6°F4.8°C 40.4°F4.7°C 99% 0.7 mph NNE1.1 kmh NNE 3.1 mph5.0 kmh 30.25 in1024.4 mb 0.00 in0.0 mm 0.00 in0.0 mm 0.00 in0.0 mm
05:15 AM 40.6°F4.8°C 40.4°F4.7°C 99% 1.6 mph N2.6 kmh N 3.8 mph6.1 kmh 30.25 in1024.4 mb 0.00 in0.0 mm 0.00 in0.0 mm 0.00 in0.0 mm
05:30 AM 39.9°F4.4°C 39.7°F4.3°C 99% 0.7 mph N1.1 kmh N 3.8 mph6.1 kmh 30.26 in1024.7 mb 0.00 in0.0 mm 0.00 in0.0 mm 0.00 in0.0 mm
05:45 AM 39.0°F3.9°C 38.8°F3.8°C 99% 1.6 mph N2.6 kmh N 3.1 mph5.0 kmh 30.26 in1024.7 mb 0.00 in0.0 mm 0.00 in0.0 mm 0.00 in0.0 mm
06:00 AM 38.3°F3.5°C 38.0°F3.3°C 99% 1.6 mph N2.6 kmh N 4.5 mph7.2 kmh 30.26 in1024.7 mb 0.00 in0.0 mm 0.00 in0.0 mm 0.00 in0.0 mm
06:15 AM 37.8°F3.2°C 37.5°F3.1°C 99% 3.1 mph N5.0 kmh N 5.4 mph8.7 kmh 30.26 in1024.7 mb 0.00 in0.0 mm 0.00 in0.0 mm 0.00 in0.0 mm
06:30 AM 37.9°F3.3°C 37.7°F3.2°C 99% 2.2 mph N3.5 kmh N 4.5 mph7.2 kmh 30.26 in1024.7 mb 0.00 in0.0 mm 0.00 in0.0 mm 0.00 in0.0 mm
06:45 AM 38.1°F3.4°C 37.9°F3.3°C 99% 2.2 mph N3.5 kmh N 5.4 mph8.7 kmh 30.26 in1024.7 mb 0.00 in0.0 mm 0.00 in0.0 mm 0.00 in0.0 mm
07:00 AM 37.9°F3.3°C 37.7°F3.2°C 99% 3.1 mph N5.0 kmh N 6.9 mph11.1 kmh 30.26 in1024.7 mb 0.00 in0.0 mm 0.00 in0.0 mm 0.00 in0.0 mm
07:15 AM 37.6°F3.1°C 37.3°F2.9°C 99% 3.1 mph N5.0 kmh N 6.0 mph9.7 kmh 30.27 in1025.1 mb 0.00 in0.0 mm 0.00 in0.0 mm 0.00 in0.0 mm
07:30 AM 37.2°F2.9°C 37.0°F2.8°C 99% 0.7 mph N1.1 kmh N 4.5 mph7.2 kmh 30.27 in1025.1 mb 0.00 in0.0 mm 0.00 in0.0 mm 0.00 in0.0 mm
07:45 AM 36.7°F2.6°C 36.4°F2.4°C 99% 0.7 mph N1.1 kmh N 4.5 mph7.2 kmh 30.27 in1025.1 mb 0.00 in0.0 mm 0.00 in0.0 mm 0.00 in0.0 mm
08:00 AM 36.3°F2.4°C 36.1°F2.3°C 99% 1.6 mph N2.6 kmh N 3.8 mph6.1 kmh 30.28 in1025.4 mb 0.00 in0.0 mm 0.00 in0.0 mm 0.00 in0.0 mm
08:15 AM 36.3°F2.4°C 36.1°F2.3°C 99% 3.1 mph N5.0 kmh N 4.5 mph7.2 kmh 30.29 in1025.7 mb 0.00 in0.0 mm 0.00 in0.0 mm 0.00 in0.0 mm
08:30 AM 36.1°F2.3°C 35.9°F2.2°C 99% 2.2 mph N3.5 kmh N 4.5 mph7.2 kmh 30.29 in1025.7 mb 0.00 in0.0 mm 0.00 in0.0 mm 0.00 in0.0 mm
08:45 AM 35.8°F2.1°C 35.5°F1.9°C 99% 0.7 mph NNE1.1 kmh NNE 2.2 mph3.5 kmh 30.29 in1025.7 mb 0.00 in0.0 mm 0.00 in0.0 mm 0.00 in0.0 mm
09:00 AM 35.8°F2.1°C 35.5°F1.9°C 99% 0.7 mph NE1.1 kmh NE 3.1 mph5.0 kmh 30.29 in1025.7 mb 0.00 in0.0 mm 0.00 in0.0 mm 0.00 in0.0 mm
09:15 AM 37.0°F2.8°C 36.8°F2.7°C 99% 0.7 mph NNE1.1 kmh NNE 4.5 mph7.2 kmh 30.29 in1025.7 mb 0.00 in0.0 mm 0.00 in0.0 mm 0.00 in0.0 mm
09:30 AM 39.0°F3.9°C 38.8°F3.8°C 99% 2.2 mph NE3.5 kmh NE 5.4 mph8.7 kmh 30.30 in1026.1 mb 0.00 in0.0 mm 0.00 in0.0 mm 0.00 in0.0 mm
09:45 AM 40.8°F4.9°C 40.6°F4.8°C 99% 3.1 mph NE5.0 kmh NE 6.0 mph9.7 kmh 30.30 in1026.1 mb 0.00 in0.0 mm 0.00 in0.0 mm 0.00 in0.0 mm
10:00 AM 42.4°F5.8°C 42.2°F5.7°C 99% 2.2 mph N3.5 kmh N 9.2 mph14.8 kmh 30.30 in1026.1 mb 0.00 in0.0 mm 0.00 in0.0 mm 0.00 in0.0 mm
10:15 AM 44.1°F6.7°C 43.8°F6.6°C 99% 2.2 mph NE3.5 kmh NE 8.3 mph13.4 kmh 30.30 in1026.1 mb 0.00 in0.0 mm 0.00 in0.0 mm 0.00 in0.0 mm
10:30 AM 45.5°F7.5°C 45.2°F7.3°C 99% 3.1 mph NNE5.0 kmh NNE 6.9 mph11.1 kmh 30.30 in1026.1 mb 0.00 in0.0 mm 0.00 in0.0 mm 0.00 in0.0 mm
10:45 AM 47.1°F8.4°C 46.9°F8.3°C 99% 3.8 mph N6.1 kmh N 6.0 mph9.7 kmh 30.31 in1026.4 mb 0.00 in0.0 mm 0.00 in0.0 mm 0.00 in0.0 mm
11:00 AM 48.9°F9.4°C 48.1°F8.9°C 97% 3.1 mph N5.0 kmh N 8.3 mph13.4 kmh 30.31 in1026.4 mb 0.00 in0.0 mm 0.00 in0.0 mm 0.00 in0.0 mm
11:15 AM 50.2°F10.1°C 47.4°F8.6°C 90% 3.1 mph NNE5.0 kmh NNE 9.8 mph15.8 kmh 30.31 in1026.4 mb 0.00 in0.0 mm 0.00 in0.0 mm 0.00 in0.0 mm
11:30 AM 51.3°F10.7°C 46.3°F7.9°C 83% 3.1 mph NNE5.0 kmh NNE 9.8 mph15.8 kmh 30.31 in1026.4 mb 0.00 in0.0 mm 0.00 in0.0 mm 0.00 in0.0 mm
11:45 AM 52.0°F11.1°C 45.0°F7.2°C 77% 3.1 mph NNE5.0 kmh NNE 15.9 mph25.6 kmh 30.30 in1026.1 mb 0.00 in0.0 mm 0.00 in0.0 mm 0.00 in0.0 mm
12:00 PM 52.9°F11.6°C 44.8°F7.1°C 74% 4.5 mph NNE7.2 kmh NNE 13.0 mph20.9 kmh 30.29 in1025.7 mb 0.00 in0.0 mm 0.00 in0.0 mm 0.00 in0.0 mm
12:15 PM 53.2°F11.8°C 44.1°F6.7°C 71% 3.8 mph NNE6.1 kmh NNE 10.7 mph17.2 kmh 30.29 in1025.7 mb 0.00 in0.0 mm 0.00 in0.0 mm 0.00 in0.0 mm
12:30 PM 54.0°F12.2°C 43.6°F6.4°C 68% 6.9 mph N11.1 kmh N 14.5 mph23.3 kmh 30.28 in1025.4 mb 0.00 in0.0 mm 0.00 in0.0 mm 0.00 in0.0 mm
12:45 PM 54.5°F12.5°C 44.5°F6.9°C 69% 2.2 mph NNE3.5 kmh NNE 9.8 mph15.8 kmh 30.27 in1025.1 mb 0.01 in0.3 mm 0.04 in1.0 mm 0.01 in0.3 mm
01:00 PM 55.2°F12.9°C 44.1°F6.7°C 66% 3.8 mph NNE6.1 kmh NNE 11.4 mph18.3 kmh 30.27 in1025.1 mb 0.01 in0.3 mm 0.00 in0.0 mm 0.01 in0.3 mm
01:15 PM 55.4°F13.0°C 43.8°F6.6°C 65% 9.2 mph NNE14.8 kmh NNE 11.4 mph18.3 kmh 30.25 in1024.4 mb 0.01 in0.3 mm 0.00 in0.0 mm 0.01 in0.3 mm
01:30 PM 55.8°F13.2°C 43.4°F6.3°C 63% 6.0 mph NNE9.7 kmh NNE 13.6 mph21.9 kmh 30.24 in1024.0 mb 0.01 in0.3 mm 0.00 in0.0 mm 0.01 in0.3 mm
01:45 PM 56.7°F13.7°C 42.9°F6.1°C 60% 4.5 mph NNE7.2 kmh NNE 15.2 mph24.5 kmh 30.24 in1024.0 mb 0.00 in0.0 mm 0.00 in0.0 mm 0.01 in0.3 mm
02:00 PM 57.0°F13.9°C 43.3°F6.3°C 60% 6.0 mph N9.7 kmh N 12.1 mph19.5 kmh 30.24 in1024.0 mb 0.00 in0.0 mm 0.00 in0.0 mm 0.01 in0.3 mm
02:15 PM 57.2°F14.0°C 42.1°F5.6°C 57% 4.5 mph NNE7.2 kmh NNE 15.9 mph25.6 kmh 30.24 in1024.0 mb 0.00 in0.0 mm 0.00 in0.0 mm 0.01 in0.3 mm
02:30 PM 57.7°F14.3°C 43.1°F6.2°C 58% 5.4 mph NNE8.7 kmh NNE 11.4 mph18.3 kmh 30.23 in1023.7 mb 0.00 in0.0 mm 0.00 in0.0 mm 0.01 in0.3 mm
02:45 PM 57.9°F14.4°C 41.4°F5.2°C 54% 4.5 mph N7.2 kmh N 15.2 mph24.5 kmh 30.23 in1023.7 mb 0.00 in0.0 mm 0.00 in0.0 mm 0.01 in0.3 mm
03:00 PM 57.7°F14.3°C 40.7°F4.8°C 53% 7.6 mph NNE12.2 kmh NNE 15.9 mph25.6 kmh 30.23 in1023.7 mb 0.00 in0.0 mm 0.00 in0.0 mm 0.01 in0.3 mm
03:15 PM 57.9°F14.4°C 40.9°F4.9°C 53% 6.0 mph NNE9.7 kmh NNE 15.9 mph25.6 kmh 30.22 in1023.4 mb 0.00 in0.0 mm 0.00 in0.0 mm 0.01 in0.3 mm
03:30 PM 57.9°F14.4°C 40.4°F4.7°C 52% 4.5 mph N7.2 kmh N 13.0 mph20.9 kmh 30.21 in1023.0 mb 0.00 in0.0 mm 0.00 in0.0 mm 0.01 in0.3 mm
03:45 PM 57.9°F14.4°C 40.9°F4.9°C 53% 6.0 mph N9.7 kmh N 12.1 mph19.5 kmh 30.22 in1023.4 mb 0.00 in0.0 mm 0.00 in0.0 mm 0.01 in0.3 mm
04:00 PM 58.1°F14.5°C 41.6°F5.3°C 54% 3.8 mph NNE6.1 kmh NNE 9.2 mph14.8 kmh 30.22 in1023.4 mb 0.00 in0.0 mm 0.00 in0.0 mm 0.01 in0.3 mm
04:15 PM 58.1°F14.5°C 41.6°F5.3°C 54% 6.0 mph NNE9.7 kmh NNE 11.4 mph18.3 kmh 30.22 in1023.4 mb 0.00 in0.0 mm 0.00 in0.0 mm 0.01 in0.3 mm
04:30 PM 57.7°F14.3°C 41.7°F5.4°C 55% 3.8 mph NNE6.1 kmh NNE 13.0 mph20.9 kmh 30.22 in1023.4 mb 0.00 in0.0 mm 0.00 in0.0 mm 0.01 in0.3 mm
04:45 PM 57.2°F14.0°C 41.7°F5.4°C 56% 4.5 mph NNE7.2 kmh NNE 11.4 mph18.3 kmh 30.22 in1023.4 mb 0.00 in0.0 mm 0.00 in0.0 mm 0.01 in0.3 mm
05:00 PM 57.2°F14.0°C 42.1°F5.6°C 57% 2.2 mph NNE3.5 kmh NNE 9.2 mph14.8 kmh 30.21 in1023.0 mb 0.00 in0.0 mm 0.00 in0.0 mm 0.01 in0.3 mm
05:15 PM 56.8°F13.8°C 40.9°F4.9°C 55% 3.8 mph N6.1 kmh N 11.4 mph18.3 kmh 30.23 in1023.7 mb 0.00 in0.0 mm 0.00 in0.0 mm 0.01 in0.3 mm
05:30 PM 56.3°F13.5°C 39.9°F4.4°C 54% 3.8 mph NNE6.1 kmh NNE 9.2 mph14.8 kmh 30.22 in1023.4 mb 0.00 in0.0 mm 0.00 in0.0 mm 0.01 in0.3 mm
05:45 PM 55.2°F12.9°C 39.8°F4.3°C 56% 0.7 mph NE1.1 kmh NE 6.9 mph11.1 kmh 30.22 in1023.4 mb 0.00 in0.0 mm 0.00 in0.0 mm 0.01 in0.3 mm
06:00 PM 54.0°F12.2°C 39.1°F3.9°C 57% 1.6 mph NNE2.6 kmh NNE 6.0 mph9.7 kmh 30.23 in1023.7 mb 0.00 in0.0 mm 0.00 in0.0 mm 0.01 in0.3 mm
06:15 PM 52.7°F11.5°C 37.9°F3.3°C 57% 0.7 mph N1.1 kmh N 5.4 mph8.7 kmh 30.23 in1023.7 mb 0.00 in0.0 mm 0.00 in0.0 mm 0.01 in0.3 mm
06:30 PM 51.4°F10.8°C 38.0°F3.3°C 60% 1.6 mph N2.6 kmh N 3.8 mph6.1 kmh 30.23 in1023.7 mb 0.00 in0.0 mm 0.00 in0.0 mm 0.01 in0.3 mm
06:45 PM 49.3°F9.6°C 37.2°F2.9°C 63% 1.6 mph N2.6 kmh N 2.2 mph3.5 kmh 30.24 in1024.0 mb 0.00 in0.0 mm 0.00 in0.0 mm 0.02 in0.5 mm
07:00 PM 47.3°F8.5°C 36.5°F2.5°C 66% Calm Calm 2.2 mph3.5 kmh 30.24 in1024.0 mb 0.00 in0.0 mm 0.00 in0.0 mm 0.02 in0.5 mm
07:15 PM 45.5°F7.5°C 35.6°F2.0°C 68% 0.7 mph N1.1 kmh N 1.6 mph2.6 kmh 30.25 in1024.4 mb 0.00 in0.0 mm 0.00 in0.0 mm 0.02 in0.5 mm
07:30 PM 44.4°F6.9°C 35.3°F1.8°C 70% Calm Calm 2.2 mph3.5 kmh 30.25 in1024.4 mb 0.00 in0.0 mm 0.00 in0.0 mm 0.02 in0.5 mm
07:45 PM 43.2°F6.2°C 34.8°F1.6°C 72% 0.7 mph NW1.1 kmh NW 1.6 mph2.6 kmh 30.25 in1024.4 mb 0.00 in0.0 mm 0.00 in0.0 mm 0.02 in0.5 mm
08:00 PM 42.3°F5.7°C 34.9°F1.6°C 75% Calm Calm 1.6 mph2.6 kmh 30.26 in1024.7 mb 0.00 in0.0 mm 0.00 in0.0 mm 0.02 in0.5 mm
08:15 PM 41.5°F5.3°C 34.5°F1.4°C 76% 0.7 mph NW1.1 kmh NW 1.6 mph2.6 kmh 30.27 in1025.1 mb 0.00 in0.0 mm 0.00 in0.0 mm 0.02 in0.5 mm
08:30 PM 40.6°F4.8°C 34.6°F1.4°C 79% Calm Calm 1.6 mph2.6 kmh 30.26 in1024.7 mb 0.00 in0.0 mm 0.00 in0.0 mm 0.02 in0.5 mm
08:45 PM 39.6°F4.2°C 34.2°F1.2°C 81% Calm Calm 0.7 mph1.1 kmh 30.27 in1025.1 mb 0.00 in0.0 mm 0.00 in0.0 mm 0.02 in0.5 mm
09:00 PM 39.0°F3.9°C 34.0°F1.1°C 82% Calm Calm 1.6 mph2.6 kmh 30.27 in1025.1 mb 0.00 in0.0 mm 0.00 in0.0 mm 0.02 in0.5 mm
09:15 PM 38.7°F3.7°C 33.7°F0.9°C 82% 1.6 mph N2.6 kmh N 2.2 mph3.5 kmh 30.27 in1025.1 mb 0.00 in0.0 mm 0.00 in0.0 mm 0.02 in0.5 mm
09:30 PM 37.9°F3.3°C 33.2°F0.7°C 83% 1.6 mph N2.6 kmh N 3.1 mph5.0 kmh 30.27 in1025.1 mb 0.00 in0.0 mm 0.00 in0.0 mm 0.02 in0.5 mm
09:45 PM 37.2°F2.9°C 32.8°F0.4°C 84% 1.6 mph N2.6 kmh N 3.1 mph5.0 kmh 30.27 in1025.1 mb 0.00 in0.0 mm 0.00 in0.0 mm 0.02 in0.5 mm
10:00 PM 36.7°F2.6°C 32.6°F0.3°C 85% 3.1 mph N5.0 kmh N 3.8 mph6.1 kmh 30.27 in1025.1 mb 0.00 in0.0 mm 0.00 in0.0 mm 0.02 in0.5 mm
10:15 PM 36.0°F2.2°C 32.2°F0.1°C 86% 0.7 mph N1.1 kmh N 3.8 mph6.1 kmh 30.27 in1025.1 mb 0.00 in0.0 mm 0.00 in0.0 mm 0.02 in0.5 mm
10:30 PM 35.8°F2.1°C 32.0°F0.0°C 86% 0.7 mph N1.1 kmh N 2.2 mph3.5 kmh 30.27 in1025.1 mb 0.00 in0.0 mm 0.00 in0.0 mm 0.02 in0.5 mm
10:45 PM 35.8°F2.1°C 32.3°F0.2°C 87% 0.7 mph N1.1 kmh N 2.2 mph3.5 kmh 30.27 in1025.1 mb 0.00 in0.0 mm 0.00 in0.0 mm 0.02 in0.5 mm
11:00 PM 36.7°F2.6°C 32.9°F0.5°C 86% 0.7 mph N1.1 kmh N 3.1 mph5.0 kmh 30.27 in1025.1 mb 0.00 in0.0 mm 0.00 in0.0 mm 0.02 in0.5 mm
11:15 PM 36.9°F2.7°C 33.1°F0.6°C 86% 0.7 mph NNW1.1 kmh NNW 2.2 mph3.5 kmh 30.28 in1025.4 mb 0.00 in0.0 mm 0.00 in0.0 mm 0.02 in0.5 mm
11:30 PM 36.5°F2.5°C 32.7°F0.4°C 86% 0.7 mph N1.1 kmh N 2.2 mph3.5 kmh 30.28 in1025.4 mb 0.00 in0.0 mm 0.00 in0.0 mm 0.02 in0.5 mm
11:45 PM 36.3°F2.4°C 33.1°F0.6°C 88% 2.2 mph N3.5 kmh N 3.8 mph6.1 kmh 30.27 in1025.1 mb 0.00 in0.0 mm 0.00 in0.0 mm 0.02 in0.5 mm